sensor_id;sensor_type;location;lat;lon;timestamp;P1;durP1;ratioP1;P2;durP2;ratioP2
2972;SDS011;1496;51.404;7.232;2023-05-19T00:00:20;7.13;;;4.20;;
2972;SDS011;1496;51.404;7.232;2023-05-19T00:02:47;10.57;;;4.77;;
2972;SDS011;1496;51.404;7.232;2023-05-19T00:05:15;5.50;;;3.90;;
2972;SDS011;1496;51.404;7.232;2023-05-19T00:07:42;11.60;;;4.40;;
2972;SDS011;1496;51.404;7.232;2023-05-19T00:10:11;7.37;;;3.93;;
2972;SDS011;1496;51.404;7.232;2023-05-19T00:12:39;8.80;;;4.33;;
2972;SDS011;1496;51.404;7.232;2023-05-19T00:15:08;9.13;;;4.10;;
2972;SDS011;1496;51.404;7.232;2023-05-19T00:17:36;9.40;;;4.57;;
2972;SDS011;1496;51.404;7.232;2023-05-19T00:20:07;9.40;;;4.83;;
2972;SDS011;1496;51.404;7.232;2023-05-19T00:22:36;5.07;;;4.33;;
2972;SDS011;1496;51.404;7.232;2023-05-19T00:25:03;8.50;;;4.47;;
2972;SDS011;1496;51.404;7.232;2023-05-19T00:27:30;8.50;;;4.30;;
2972;SDS011;1496;51.404;7.232;2023-05-19T00:29:57;9.03;;;4.30;;
2972;SDS011;1496;51.404;7.232;2023-05-19T00:32:24;10.67;;;5.10;;
2972;SDS011;1496;51.404;7.232;2023-05-19T00:34:52;12.90;;;4.93;;
2972;SDS011;1496;51.404;7.232;2023-05-19T00:37:19;16.30;;;4.57;;
2972;SDS011;1496;51.404;7.232;2023-05-19T00:39:46;8.73;;;4.27;;
2972;SDS011;1496;51.404;7.232;2023-05-19T00:42:13;9.23;;;5.10;;
2972;SDS011;1496;51.404;7.232;2023-05-19T00:44:40;8.87;;;4.73;;
2972;SDS011;1496;51.404;7.232;2023-05-19T00:47:07;12.37;;;5.10;;
2972;SDS011;1496;51.404;7.232;2023-05-19T00:49:34;9.40;;;4.50;;
2972;SDS011;1496;51.404;7.232;2023-05-19T00:52:02;9.00;;;4.77;;
2972;SDS011;1496;51.404;7.232;2023-05-19T00:54:31;7.03;;;4.10;;
2972;SDS011;1496;51.404;7.232;2023-05-19T00:56:59;6.67;;;4.57;;
2972;SDS011;1496;51.404;7.232;2023-05-19T00:59:28;10.30;;;4.20;;
2972;SDS011;1496;51.404;7.232;2023-05-19T01:01:55;8.10;;;4.60;;
2972;SDS011;1496;51.404;7.232;2023-05-19T01:04:23;10.93;;;4.53;;
2972;SDS011;1496;51.404;7.232;2023-05-19T01:06:50;10.70;;;4.77;;
2972;SDS011;1496;51.404;7.232;2023-05-19T01:09:21;10.37;;;4.80;;
2972;SDS011;1496;51.404;7.232;2023-05-19T01:11:51;9.87;;;5.47;;
2972;SDS011;1496;51.404;7.232;2023-05-19T01:14:18;7.20;;;4.83;;
2972;SDS011;1496;51.404;7.232;2023-05-19T01:16:46;12.80;;;4.90;;
2972;SDS011;1496;51.404;7.232;2023-05-19T01:31:07;11.63;;;5.03;;
2972;SDS011;1496;51.404;7.232;2023-05-19T01:33:38;12.33;;;4.57;;
2972;SDS011;1496;51.404;7.232;2023-05-19T01:36:07;13.50;;;5.53;;
2972;SDS011;1496;51.404;7.232;2023-05-19T01:38:40;7.13;;;4.80;;
2972;SDS011;1496;51.404;7.232;2023-05-19T01:41:10;10.27;;;5.10;;
2972;SDS011;1496;51.404;7.232;2023-05-19T01:43:41;5.50;;;4.67;;
2972;SDS011;1496;51.404;7.232;2023-05-19T01:46:10;7.90;;;5.00;;
2972;SDS011;1496;51.404;7.232;2023-05-19T01:48:38;11.57;;;6.00;;
2972;SDS011;1496;51.404;7.232;2023-05-19T01:51:05;7.30;;;5.37;;
2972;SDS011;1496;51.404;7.232;2023-05-19T01:53:33;7.73;;;5.00;;
2972;SDS011;1496;51.404;7.232;2023-05-19T01:56:01;11.70;;;5.83;;
2972;SDS011;1496;51.404;7.232;2023-05-19T02:04:28;9.43;;;5.20;;
2972;SDS011;1496;51.404;7.232;2023-05-19T02:07:52;11.23;;;5.23;;
2972;SDS011;1496;51.404;7.232;2023-05-19T02:10:05;11.30;;;5.17;;
2972;SDS011;1496;51.404;7.232;2023-05-19T02:12:42;10.93;;;4.77;;
2972;SDS011;1496;51.404;7.232;2023-05-19T02:15:16;11.33;;;5.53;;
2972;SDS011;1496;51.404;7.232;2023-05-19T02:17:50;10.57;;;5.50;;
2972;SDS011;1496;51.404;7.232;2023-05-19T02:20:21;6.67;;;4.90;;
2972;SDS011;1496;51.404;7.232;2023-05-19T02:22:49;7.50;;;5.10;;
2972;SDS011;1496;51.404;7.232;2023-05-19T02:25:15;9.37;;;5.37;;
2972;SDS011;1496;51.404;7.232;2023-05-19T02:27:43;15.27;;;5.17;;
2972;SDS011;1496;51.404;7.232;2023-05-19T02:30:10;9.33;;;5.30;;
2972;SDS011;1496;51.404;7.232;2023-05-19T02:32:37;10.87;;;6.30;;
2972;SDS011;1496;51.404;7.232;2023-05-19T02:35:05;16.00;;;6.80;;
2972;SDS011;1496;51.404;7.232;2023-05-19T02:37:32;6.20;;;4.80;;
2972;SDS011;1496;51.404;7.232;2023-05-19T02:40:01;11.73;;;6.03;;
2972;SDS011;1496;51.404;7.232;2023-05-19T02:42:28;8.60;;;4.90;;
2972;SDS011;1496;51.404;7.232;2023-05-19T02:44:56;14.60;;;6.80;;
2972;SDS011;1496;51.404;7.232;2023-05-19T02:47:24;15.50;;;6.80;;
2972;SDS011;1496;51.404;7.232;2023-05-19T02:49:51;16.77;;;6.00;;
2972;SDS011;1496;51.404;7.232;2023-05-19T02:52:17;8.83;;;5.50;;
2972;SDS011;1496;51.404;7.232;2023-05-19T02:54:44;9.83;;;5.40;;
2972;SDS011;1496;51.404;7.232;2023-05-19T02:57:11;13.33;;;5.60;;
2972;SDS011;1496;51.404;7.232;2023-05-19T02:59:38;9.90;;;5.43;;
2972;SDS011;1496;51.404;7.232;2023-05-19T03:02:05;7.57;;;5.90;;
2972;SDS011;1496;51.404;7.232;2023-05-19T03:04:32;12.23;;;5.70;;
2972;SDS011;1496;51.404;7.232;2023-05-19T03:07:06;10.00;;;5.67;;
2972;SDS011;1496;51.404;7.232;2023-05-19T03:09:38;20.07;;;6.43;;
2972;SDS011;1496;51.404;7.232;2023-05-19T03:12:05;13.67;;;5.77;;
2972;SDS011;1496;51.404;7.232;2023-05-19T03:14:32;10.60;;;5.90;;
2972;SDS011;1496;51.404;7.232;2023-05-19T03:17:02;10.37;;;5.87;;
2972;SDS011;1496;51.404;7.232;2023-05-19T03:19:32;8.90;;;6.40;;
2972;SDS011;1496;51.404;7.232;2023-05-19T03:21:59;17.23;;;6.67;;
2972;SDS011;1496;51.404;7.232;2023-05-19T03:24:27;12.73;;;5.20;;
2972;SDS011;1496;51.404;7.232;2023-05-19T03:26:54;10.20;;;6.27;;
2972;SDS011;1496;51.404;7.232;2023-05-19T03:29:21;13.50;;;7.60;;
2972;SDS011;1496;51.404;7.232;2023-05-19T03:31:50;11.67;;;5.07;;
2972;SDS011;1496;51.404;7.232;2023-05-19T03:34:18;9.37;;;5.80;;
2972;SDS011;1496;51.404;7.232;2023-05-19T03:36:48;10.47;;;5.90;;
2972;SDS011;1496;51.404;7.232;2023-05-19T03:39:17;10.70;;;6.17;;
2972;SDS011;1496;51.404;7.232;2023-05-19T03:41:46;13.70;;;6.27;;
2972;SDS011;1496;51.404;7.232;2023-05-19T03:44:15;10.20;;;5.87;;
2972;SDS011;1496;51.404;7.232;2023-05-19T03:46:42;11.90;;;5.77;;
2972;SDS011;1496;51.404;7.232;2023-05-19T03:49:16;10.70;;;5.10;;
2972;SDS011;1496;51.404;7.232;2023-05-19T03:52:14;11.47;;;5.30;;
2972;SDS011;1496;51.404;7.232;2023-05-19T03:55:05;13.10;;;6.30;;
2972;SDS011;1496;51.404;7.232;2023-05-19T03:57:33;8.30;;;5.13;;
2972;SDS011;1496;51.404;7.232;2023-05-19T04:00:00;13.27;;;6.60;;
2972;SDS011;1496;51.404;7.232;2023-05-19T04:02:27;12.37;;;7.27;;
2972;SDS011;1496;51.404;7.232;2023-05-19T04:04:53;11.93;;;6.17;;
2972;SDS011;1496;51.404;7.232;2023-05-19T04:07:22;15.07;;;6.80;;
2972;SDS011;1496;51.404;7.232;2023-05-19T04:09:51;10.60;;;6.50;;
2972;SDS011;1496;51.404;7.232;2023-05-19T04:12:19;14.77;;;6.77;;
2972;SDS011;1496;51.404;7.232;2023-05-19T04:14:45;8.70;;;6.10;;
2972;SDS011;1496;51.404;7.232;2023-05-19T04:17:12;10.03;;;7.13;;
2972;SDS011;1496;51.404;7.232;2023-05-19T04:19:39;14.47;;;7.90;;
2972;SDS011;1496;51.404;7.232;2023-05-19T04:22:06;12.40;;;6.20;;
2972;SDS011;1496;51.404;7.232;2023-05-19T04:24:34;11.50;;;7.10;;
2972;SDS011;1496;51.404;7.232;2023-05-19T04:27:01;15.00;;;7.50;;
2972;SDS011;1496;51.404;7.232;2023-05-19T04:29:30;11.37;;;6.47;;
2972;SDS011;1496;51.404;7.232;2023-05-19T04:31:57;7.73;;;6.23;;
2972;SDS011;1496;51.404;7.232;2023-05-19T04:34:27;14.73;;;7.03;;
2972;SDS011;1496;51.404;7.232;2023-05-19T04:36:56;9.60;;;6.40;;
2972;SDS011;1496;51.404;7.232;2023-05-19T04:39:23;13.33;;;7.60;;
2972;SDS011;1496;51.404;7.232;2023-05-19T04:41:51;10.10;;;6.00;;
2972;SDS011;1496;51.404;7.232;2023-05-19T04:44:19;9.03;;;6.50;;
2972;SDS011;1496;51.404;7.232;2023-05-19T04:46:48;9.97;;;6.77;;
2972;SDS011;1496;51.404;7.232;2023-05-19T04:49:20;14.23;;;7.13;;
2972;SDS011;1496;51.404;7.232;2023-05-19T04:51:49;10.07;;;6.70;;
2972;SDS011;1496;51.404;7.232;2023-05-19T04:54:20;13.80;;;7.40;;
2972;SDS011;1496;51.404;7.232;2023-05-19T04:56:49;14.23;;;7.20;;
2972;SDS011;1496;51.404;7.232;2023-05-19T04:59:18;9.43;;;8.23;;
2972;SDS011;1496;51.404;7.232;2023-05-19T05:01:47;19.67;;;8.37;;
2972;SDS011;1496;51.404;7.232;2023-05-19T05:04:15;10.77;;;6.90;;
2972;SDS011;1496;51.404;7.232;2023-05-19T05:06:41;11.23;;;6.70;;
2972;SDS011;1496;51.404;7.232;2023-05-19T05:09:13;12.10;;;6.80;;
2972;SDS011;1496;51.404;7.232;2023-05-19T05:11:42;12.63;;;7.47;;
2972;SDS011;1496;51.404;7.232;2023-05-19T05:14:10;13.93;;;7.10;;
2972;SDS011;1496;51.404;7.232;2023-05-19T05:16:38;15.30;;;8.27;;
2972;SDS011;1496;51.404;7.232;2023-05-19T05:19:08;12.83;;;7.20;;
2972;SDS011;1496;51.404;7.232;2023-05-19T05:21:35;10.30;;;6.90;;
2972;SDS011;1496;51.404;7.232;2023-05-19T05:24:03;13.43;;;7.13;;
2972;SDS011;1496;51.404;7.232;2023-05-19T05:26:32;10.20;;;7.37;;
2972;SDS011;1496;51.404;7.232;2023-05-19T05:29:00;16.90;;;7.40;;
2972;SDS011;1496;51.404;7.232;2023-05-19T05:31:29;12.20;;;6.97;;
2972;SDS011;1496;51.404;7.232;2023-05-19T05:33:57;15.03;;;7.00;;
2972;SDS011;1496;51.404;7.232;2023-05-19T05:36:29;10.93;;;7.57;;
2972;SDS011;1496;51.404;7.232;2023-05-19T05:38:59;11.60;;;7.70;;
2972;SDS011;1496;51.404;7.232;2023-05-19T05:41:28;10.83;;;8.00;;
2972;SDS011;1496;51.404;7.232;2023-05-19T05:44:04;17.93;;;7.10;;
2972;SDS011;1496;51.404;7.232;2023-05-19T05:46:31;15.97;;;7.63;;
2972;SDS011;1496;51.404;7.232;2023-05-19T05:49:00;9.70;;;6.53;;
2972;SDS011;1496;51.404;7.232;2023-05-19T05:51:28;23.23;;;8.13;;
2972;SDS011;1496;51.404;7.232;2023-05-19T05:53:59;17.73;;;7.43;;
2972;SDS011;1496;51.404;7.232;2023-05-19T05:56:35;16.83;;;7.63;;
2972;SDS011;1496;51.404;7.232;2023-05-19T05:59:04;17.70;;;7.73;;
2972;SDS011;1496;51.404;7.232;2023-05-19T06:01:31;9.33;;;6.30;;
2972;SDS011;1496;51.404;7.232;2023-05-19T06:04:00;13.53;;;7.67;;
2972;SDS011;1496;51.404;7.232;2023-05-19T06:06:28;12.33;;;7.10;;
2972;SDS011;1496;51.404;7.232;2023-05-19T06:09:00;14.50;;;6.70;;
2972;SDS011;1496;51.404;7.232;2023-05-19T06:11:28;13.53;;;6.73;;
2972;SDS011;1496;51.404;7.232;2023-05-19T06:13:57;18.33;;;6.27;;
2972;SDS011;1496;51.404;7.232;2023-05-19T06:16:43;10.43;;;6.47;;
2972;SDS011;1496;51.404;7.232;2023-05-19T06:19:11;10.80;;;5.90;;
2972;SDS011;1496;51.404;7.232;2023-05-19T06:21:37;14.50;;;5.97;;
2972;SDS011;1496;51.404;7.232;2023-05-19T06:24:03;9.77;;;6.53;;
2972;SDS011;1496;51.404;7.232;2023-05-19T06:26:31;8.90;;;5.90;;
2972;SDS011;1496;51.404;7.232;2023-05-19T06:28:59;9.80;;;6.00;;
2972;SDS011;1496;51.404;7.232;2023-05-19T06:31:27;12.93;;;6.50;;
2972;SDS011;1496;51.404;7.232;2023-05-19T06:34:02;15.13;;;7.53;;
2972;SDS011;1496;51.404;7.232;2023-05-19T06:36:29;8.07;;;5.90;;
2972;SDS011;1496;51.404;7.232;2023-05-19T06:38:57;10.33;;;5.53;;
2972;SDS011;1496;51.404;7.232;2023-05-19T06:41:24;9.33;;;6.57;;
2972;SDS011;1496;51.404;7.232;2023-05-19T06:43:52;6.80;;;5.40;;
2972;SDS011;1496;51.404;7.232;2023-05-19T06:46:20;8.40;;;5.40;;
2972;SDS011;1496;51.404;7.232;2023-05-19T06:48:49;21.93;;;7.40;;
2972;SDS011;1496;51.404;7.232;2023-05-19T06:51:21;10.93;;;4.97;;
2972;SDS011;1496;51.404;7.232;2023-05-19T06:53:53;18.00;;;6.00;;
2972;SDS011;1496;51.404;7.232;2023-05-19T06:56:21;7.20;;;4.33;;
2972;SDS011;1496;51.404;7.232;2023-05-19T06:58:50;11.80;;;6.43;;
2972;SDS011;1496;51.404;7.232;2023-05-19T07:01:21;13.03;;;5.70;;
2972;SDS011;1496;51.404;7.232;2023-05-19T07:03:53;11.80;;;4.80;;
2972;SDS011;1496;51.404;7.232;2023-05-19T07:06:21;6.97;;;4.83;;
2972;SDS011;1496;51.404;7.232;2023-05-19T07:08:48;9.47;;;4.90;;
2972;SDS011;1496;51.404;7.232;2023-05-19T07:11:16;9.20;;;4.23;;
2972;SDS011;1496;51.404;7.232;2023-05-19T07:13:43;7.97;;;4.33;;
2972;SDS011;1496;51.404;7.232;2023-05-19T07:16:11;6.43;;;4.10;;
2972;SDS011;1496;51.404;7.232;2023-05-19T07:18:38;8.10;;;4.60;;
2972;SDS011;1496;51.404;7.232;2023-05-19T07:21:04;10.43;;;4.17;;
2972;SDS011;1496;51.404;7.232;2023-05-19T07:23:32;7.23;;;4.23;;
2972;SDS011;1496;51.404;7.232;2023-05-19T07:25:59;5.37;;;3.67;;
2972;SDS011;1496;51.404;7.232;2023-05-19T07:28:26;8.10;;;4.07;;
2972;SDS011;1496;51.404;7.232;2023-05-19T07:30:52;6.97;;;3.60;;
2972;SDS011;1496;51.404;7.232;2023-05-19T07:33:19;5.97;;;3.50;;
2972;SDS011;1496;51.404;7.232;2023-05-19T07:35:46;6.17;;;4.03;;
2972;SDS011;1496;51.404;7.232;2023-05-19T07:38:13;8.33;;;3.97;;
2972;SDS011;1496;51.404;7.232;2023-05-19T07:40:39;6.10;;;3.60;;
2972;SDS011;1496;51.404;7.232;2023-05-19T07:43:07;7.90;;;3.60;;
2972;SDS011;1496;51.404;7.232;2023-05-19T07:45:34;8.73;;;4.13;;
2972;SDS011;1496;51.404;7.232;2023-05-19T07:48:01;6.97;;;2.97;;
2972;SDS011;1496;51.404;7.232;2023-05-19T07:50:28;6.63;;;3.70;;
2972;SDS011;1496;51.404;7.232;2023-05-19T07:52:56;9.47;;;3.63;;
2972;SDS011;1496;51.404;7.232;2023-05-19T07:55:22;7.00;;;3.40;;
2972;SDS011;1496;51.404;7.232;2023-05-19T07:57:49;8.47;;;2.80;;
2972;SDS011;1496;51.404;7.232;2023-05-19T08:00:16;8.07;;;3.10;;
2972;SDS011;1496;51.404;7.232;2023-05-19T08:02:45;7.50;;;3.10;;
2972;SDS011;1496;51.404;7.232;2023-05-19T08:05:12;9.07;;;4.60;;
2972;SDS011;1496;51.404;7.232;2023-05-19T08:07:38;6.87;;;3.13;;
2972;SDS011;1496;51.404;7.232;2023-05-19T08:10:06;5.00;;;3.27;;
2972;SDS011;1496;51.404;7.232;2023-05-19T08:12:32;5.70;;;2.47;;
2972;SDS011;1496;51.404;7.232;2023-05-19T08:14:59;8.40;;;2.30;;
2972;SDS011;1496;51.404;7.232;2023-05-19T08:17:25;5.83;;;2.80;;
2972;SDS011;1496;51.404;7.232;2023-05-19T08:19:53;5.67;;;2.80;;
2972;SDS011;1496;51.404;7.232;2023-05-19T08:22:19;7.93;;;3.90;;
2972;SDS011;1496;51.404;7.232;2023-05-19T08:24:46;6.03;;;3.80;;
2972;SDS011;1496;51.404;7.232;2023-05-19T08:27:14;7.93;;;2.30;;
2972;SDS011;1496;51.404;7.232;2023-05-19T08:29:42;6.90;;;2.70;;
2972;SDS011;1496;51.404;7.232;2023-05-19T08:32:09;8.20;;;2.47;;
2972;SDS011;1496;51.404;7.232;2023-05-19T08:34:37;5.73;;;3.07;;
2972;SDS011;1496;51.404;7.232;2023-05-19T08:37:03;6.07;;;2.80;;
2972;SDS011;1496;51.404;7.232;2023-05-19T08:39:30;18.93;;;3.23;;
2972;SDS011;1496;51.404;7.232;2023-05-19T08:41:58;11.33;;;2.60;;
2972;SDS011;1496;51.404;7.232;2023-05-19T08:44:26;5.03;;;2.23;;
2972;SDS011;1496;51.404;7.232;2023-05-19T08:46:55;6.93;;;2.33;;
2972;SDS011;1496;51.404;7.232;2023-05-19T08:49:27;6.60;;;2.00;;
2972;SDS011;1496;51.404;7.232;2023-05-19T08:54:53;8.63;;;2.23;;
2972;SDS011;1496;51.404;7.232;2023-05-19T08:57:26;6.03;;;2.67;;
2972;SDS011;1496;51.404;7.232;2023-05-19T08:59:54;6.10;;;2.77;;
2972;SDS011;1496;51.404;7.232;2023-05-19T09:02:21;8.43;;;2.40;;
2972;SDS011;1496;51.404;7.232;2023-05-19T09:04:49;7.37;;;2.40;;
2972;SDS011;1496;51.404;7.232;2023-05-19T09:07:19;7.60;;;2.63;;
2972;SDS011;1496;51.404;7.232;2023-05-19T09:09:47;4.87;;;1.90;;
2972;SDS011;1496;51.404;7.232;2023-05-19T09:12:14;13.67;;;3.10;;
2972;SDS011;1496;51.404;7.232;2023-05-19T09:14:40;5.50;;;1.97;;
2972;SDS011;1496;51.404;7.232;2023-05-19T09:17:07;4.10;;;2.03;;
2972;SDS011;1496;51.404;7.232;2023-05-19T09:19:34;5.03;;;2.27;;
2972;SDS011;1496;51.404;7.232;2023-05-19T09:22:07;6.43;;;2.60;;
2972;SDS011;1496;51.404;7.232;2023-05-19T09:24:33;4.37;;;2.07;;
2972;SDS011;1496;51.404;7.232;2023-05-19T09:27:01;13.83;;;2.40;;
2972;SDS011;1496;51.404;7.232;2023-05-19T09:29:29;4.00;;;1.90;;
2972;SDS011;1496;51.404;7.232;2023-05-19T09:31:58;4.70;;;2.07;;
2972;SDS011;1496;51.404;7.232;2023-05-19T09:34:28;3.60;;;2.53;;
2972;SDS011;1496;51.404;7.232;2023-05-19T09:36:57;3.93;;;2.00;;
2972;SDS011;1496;51.404;7.232;2023-05-19T09:39:25;7.73;;;2.17;;
2972;SDS011;1496;51.404;7.232;2023-05-19T09:41:53;10.23;;;1.80;;
2972;SDS011;1496;51.404;7.232;2023-05-19T09:44:23;3.77;;;1.57;;
2972;SDS011;1496;51.404;7.232;2023-05-19T09:46:56;5.73;;;1.87;;
2972;SDS011;1496;51.404;7.232;2023-05-19T09:49:26;10.23;;;1.97;;
2972;SDS011;1496;51.404;7.232;2023-05-19T09:51:57;4.33;;;1.93;;
2972;SDS011;1496;51.404;7.232;2023-05-19T09:54:27;8.97;;;2.43;;
2972;SDS011;1496;51.404;7.232;2023-05-19T09:56:57;4.50;;;1.87;;
2972;SDS011;1496;51.404;7.232;2023-05-19T09:59:29;7.53;;;2.10;;
2972;SDS011;1496;51.404;7.232;2023-05-19T10:01:56;8.67;;;2.70;;
2972;SDS011;1496;51.404;7.232;2023-05-19T10:04:24;6.20;;;1.90;;
2972;SDS011;1496;51.404;7.232;2023-05-19T10:06:53;5.30;;;1.70;;
2972;SDS011;1496;51.404;7.232;2023-05-19T10:09:25;5.63;;;1.70;;
2972;SDS011;1496;51.404;7.232;2023-05-19T10:11:54;6.40;;;2.27;;
2972;SDS011;1496;51.404;7.232;2023-05-19T10:14:23;4.47;;;2.13;;
2972;SDS011;1496;51.404;7.232;2023-05-19T10:16:54;8.07;;;2.40;;
2972;SDS011;1496;51.404;7.232;2023-05-19T10:19:24;4.07;;;1.80;;
2972;SDS011;1496;51.404;7.232;2023-05-19T10:21:52;9.50;;;2.10;;
2972;SDS011;1496;51.404;7.232;2023-05-19T10:24:20;7.50;;;1.97;;
2972;SDS011;1496;51.404;7.232;2023-05-19T10:26:51;8.13;;;2.23;;
2972;SDS011;1496;51.404;7.232;2023-05-19T10:29:28;4.67;;;2.17;;
2972;SDS011;1496;51.404;7.232;2023-05-19T10:32:06;4.80;;;2.17;;
2972;SDS011;1496;51.404;7.232;2023-05-19T10:37:23;6.10;;;2.00;;
2972;SDS011;1496;51.404;7.232;2023-05-19T10:43:19;6.77;;;2.60;;
2972;SDS011;1496;51.404;7.232;2023-05-19T10:46:02;2.80;;;1.83;;
2972;SDS011;1496;51.404;7.232;2023-05-19T10:48:34;6.00;;;1.97;;
2972;SDS011;1496;51.404;7.232;2023-05-19T10:51:00;3.70;;;1.90;;
2972;SDS011;1496;51.404;7.232;2023-05-19T10:53:30;7.50;;;2.83;;
2972;SDS011;1496;51.404;7.232;2023-05-19T10:56:00;6.67;;;2.10;;
2972;SDS011;1496;51.404;7.232;2023-05-19T10:58:38;6.10;;;1.93;;
2972;SDS011;1496;51.404;7.232;2023-05-19T11:01:12;10.90;;;2.40;;
2972;SDS011;1496;51.404;7.232;2023-05-19T11:03:43;5.83;;;2.07;;
2972;SDS011;1496;51.404;7.232;2023-05-19T11:06:18;3.20;;;1.73;;
2972;SDS011;1496;51.404;7.232;2023-05-19T11:08:51;4.00;;;2.30;;
2972;SDS011;1496;51.404;7.232;2023-05-19T11:11:48;8.33;;;2.10;;
2972;SDS011;1496;51.404;7.232;2023-05-19T11:14:36;3.83;;;2.00;;
2972;SDS011;1496;51.404;7.232;2023-05-19T11:17:05;7.07;;;2.17;;
2972;SDS011;1496;51.404;7.232;2023-05-19T11:19:50;3.77;;;1.90;;
2972;SDS011;1496;51.404;7.232;2023-05-19T11:22:21;9.57;;;2.30;;
2972;SDS011;1496;51.404;7.232;2023-05-19T11:24:50;6.13;;;1.93;;
2972;SDS011;1496;51.404;7.232;2023-05-19T11:27:23;4.50;;;2.30;;
2972;SDS011;1496;51.404;7.232;2023-05-19T11:29:52;7.13;;;2.40;;
2972;SDS011;1496;51.404;7.232;2023-05-19T11:32:23;6.73;;;1.90;;
2972;SDS011;1496;51.404;7.232;2023-05-19T11:34:53;4.80;;;2.20;;
2972;SDS011;1496;51.404;7.232;2023-05-19T11:37:23;5.30;;;2.20;;
2972;SDS011;1496;51.404;7.232;2023-05-19T11:39:54;7.67;;;2.20;;
2972;SDS011;1496;51.404;7.232;2023-05-19T11:42:20;3.70;;;2.20;;
2972;SDS011;1496;51.404;7.232;2023-05-19T11:44:49;7.23;;;3.00;;
2972;SDS011;1496;51.404;7.232;2023-05-19T11:47:19;6.73;;;2.77;;
2972;SDS011;1496;51.404;7.232;2023-05-19T11:49:47;6.33;;;2.50;;
2972;SDS011;1496;51.404;7.232;2023-05-19T11:52:14;4.60;;;2.30;;
2972;SDS011;1496;51.404;7.232;2023-05-19T11:54:40;3.83;;;1.90;;
2972;SDS011;1496;51.404;7.232;2023-05-19T11:57:10;14.03;;;2.87;;
2972;SDS011;1496;51.404;7.232;2023-05-19T11:59:38;6.80;;;2.40;;
2972;SDS011;1496;51.404;7.232;2023-05-19T12:04:43;8.13;;;2.90;;
2972;SDS011;1496;51.404;7.232;2023-05-19T12:07:12;5.43;;;2.40;;
2972;SDS011;1496;51.404;7.232;2023-05-19T12:09:45;3.07;;;2.20;;
2972;SDS011;1496;51.404;7.232;2023-05-19T12:12:13;6.47;;;2.63;;
2972;SDS011;1496;51.404;7.232;2023-05-19T12:14:47;5.73;;;3.10;;
2972;SDS011;1496;51.404;7.232;2023-05-19T12:17:17;11.77;;;3.97;;
2972;SDS011;1496;51.404;7.232;2023-05-19T12:19:45;5.80;;;2.63;;
2972;SDS011;1496;51.404;7.232;2023-05-19T12:22:14;5.90;;;2.30;;
2972;SDS011;1496;51.404;7.232;2023-05-19T12:24:43;7.17;;;3.70;;
2972;SDS011;1496;51.404;7.232;2023-05-19T12:27:18;7.87;;;2.40;;
2972;SDS011;1496;51.404;7.232;2023-05-19T12:29:49;4.73;;;1.90;;
2972;SDS011;1496;51.404;7.232;2023-05-19T12:32:24;5.30;;;1.83;;
2972;SDS011;1496;51.404;7.232;2023-05-19T12:34:56;2.63;;;1.73;;
2972;SDS011;1496;51.404;7.232;2023-05-19T12:37:26;3.57;;;2.00;;
2972;SDS011;1496;51.404;7.232;2023-05-19T12:39:57;6.20;;;2.60;;
2972;SDS011;1496;51.404;7.232;2023-05-19T12:42:28;6.53;;;2.00;;
2972;SDS011;1496;51.404;7.232;2023-05-19T12:44:59;7.37;;;2.50;;
2972;SDS011;1496;51.404;7.232;2023-05-19T12:47:30;3.30;;;1.90;;
2972;SDS011;1496;51.404;7.232;2023-05-19T12:52:33;6.60;;;2.30;;
2972;SDS011;1496;51.404;7.232;2023-05-19T12:55:11;6.37;;;1.90;;
2972;SDS011;1496;51.404;7.232;2023-05-19T12:57:39;6.60;;;2.10;;
2972;SDS011;1496;51.404;7.232;2023-05-19T13:00:12;6.40;;;2.43;;
2972;SDS011;1496;51.404;7.232;2023-05-19T13:03:02;4.03;;;1.80;;
2972;SDS011;1496;51.404;7.232;2023-05-19T13:05:32;7.30;;;2.10;;
2972;SDS011;1496;51.404;7.232;2023-05-19T13:08:08;5.13;;;2.03;;
2972;SDS011;1496;51.404;7.232;2023-05-19T13:10:37;3.73;;;1.77;;
2972;SDS011;1496;51.404;7.232;2023-05-19T13:13:05;2.90;;;1.97;;
2972;SDS011;1496;51.404;7.232;2023-05-19T13:15:32;5.57;;;1.97;;
2972;SDS011;1496;51.404;7.232;2023-05-19T13:18:02;4.83;;;2.30;;
2972;SDS011;1496;51.404;7.232;2023-05-19T13:20:31;8.10;;;2.10;;
2972;SDS011;1496;51.404;7.232;2023-05-19T13:23:00;4.70;;;1.90;;
2972;SDS011;1496;51.404;7.232;2023-05-19T13:25:27;2.40;;;1.60;;
2972;SDS011;1496;51.404;7.232;2023-05-19T13:27:55;8.30;;;2.33;;
2972;SDS011;1496;51.404;7.232;2023-05-19T13:30:24;3.60;;;1.80;;
2972;SDS011;1496;51.404;7.232;2023-05-19T13:32:51;4.20;;;1.63;;
2972;SDS011;1496;51.404;7.232;2023-05-19T13:35:18;5.20;;;1.60;;
2972;SDS011;1496;51.404;7.232;2023-05-19T13:37:45;3.10;;;1.50;;
2972;SDS011;1496;51.404;7.232;2023-05-19T13:40:12;4.27;;;1.73;;
2972;SDS011;1496;51.404;7.232;2023-05-19T13:42:40;2.37;;;1.40;;
2972;SDS011;1496;51.404;7.232;2023-05-19T13:45:07;3.53;;;1.70;;
2972;SDS011;1496;51.404;7.232;2023-05-19T13:47:34;4.77;;;2.47;;
2972;SDS011;1496;51.404;7.232;2023-05-19T13:50:01;5.20;;;2.00;;
2972;SDS011;1496;51.404;7.232;2023-05-19T13:52:29;3.20;;;1.63;;
2972;SDS011;1496;51.404;7.232;2023-05-19T13:54:57;4.20;;;2.40;;
2972;SDS011;1496;51.404;7.232;2023-05-19T13:57:24;3.70;;;1.73;;
2972;SDS011;1496;51.404;7.232;2023-05-19T13:59:55;6.17;;;1.90;;
2972;SDS011;1496;51.404;7.232;2023-05-19T14:02:24;6.27;;;1.80;;
2972;SDS011;1496;51.404;7.232;2023-05-19T14:04:52;5.93;;;2.00;;
2972;SDS011;1496;51.404;7.232;2023-05-19T14:07:20;4.77;;;2.30;;
2972;SDS011;1496;51.404;7.232;2023-05-19T14:09:48;5.23;;;1.57;;
2972;SDS011;1496;51.404;7.232;2023-05-19T14:12:16;6.00;;;2.40;;
2972;SDS011;1496;51.404;7.232;2023-05-19T14:14:42;3.77;;;1.73;;
2972;SDS011;1496;51.404;7.232;2023-05-19T14:17:08;4.03;;;2.10;;
2972;SDS011;1496;51.404;7.232;2023-05-19T14:19:35;2.60;;;1.70;;
2972;SDS011;1496;51.404;7.232;2023-05-19T14:22:01;2.80;;;1.80;;
2972;SDS011;1496;51.404;7.232;2023-05-19T14:24:29;6.63;;;2.00;;
2972;SDS011;1496;51.404;7.232;2023-05-19T14:26:58;4.80;;;1.73;;
2972;SDS011;1496;51.404;7.232;2023-05-19T14:29:26;2.90;;;1.47;;
2972;SDS011;1496;51.404;7.232;2023-05-19T14:31:56;4.73;;;1.70;;
2972;SDS011;1496;51.404;7.232;2023-05-19T14:34:23;5.83;;;2.07;;
2972;SDS011;1496;51.404;7.232;2023-05-19T14:36:50;5.00;;;2.70;;
2972;SDS011;1496;51.404;7.232;2023-05-19T14:39:19;3.23;;;1.60;;
2972;SDS011;1496;51.404;7.232;2023-05-19T14:41:48;2.90;;;1.70;;
2972;SDS011;1496;51.404;7.232;2023-05-19T14:44:16;3.00;;;1.77;;
2972;SDS011;1496;51.404;7.232;2023-05-19T14:46:43;3.20;;;1.73;;
2972;SDS011;1496;51.404;7.232;2023-05-19T14:49:10;6.20;;;1.47;;
2972;SDS011;1496;51.404;7.232;2023-05-19T14:51:36;2.73;;;1.60;;
2972;SDS011;1496;51.404;7.232;2023-05-19T14:54:04;4.67;;;2.00;;
2972;SDS011;1496;51.404;7.232;2023-05-19T14:56:30;3.93;;;1.80;;
2972;SDS011;1496;51.404;7.232;2023-05-19T14:58:58;5.70;;;2.10;;
2972;SDS011;1496;51.404;7.232;2023-05-19T15:01:24;2.53;;;1.83;;
2972;SDS011;1496;51.404;7.232;2023-05-19T15:03:54;5.40;;;2.17;;
2972;SDS011;1496;51.404;7.232;2023-05-19T15:06:21;2.93;;;1.73;;
2972;SDS011;1496;51.404;7.232;2023-05-19T15:08:49;4.03;;;2.47;;
2972;SDS011;1496;51.404;7.232;2023-05-19T15:11:16;3.57;;;2.20;;
2972;SDS011;1496;51.404;7.232;2023-05-19T15:13:44;16.20;;;2.53;;
2972;SDS011;1496;51.404;7.232;2023-05-19T15:16:11;4.83;;;1.87;;
2972;SDS011;1496;51.404;7.232;2023-05-19T15:18:38;5.27;;;2.00;;
2972;SDS011;1496;51.404;7.232;2023-05-19T15:21:05;2.83;;;1.77;;
2972;SDS011;1496;51.404;7.232;2023-05-19T15:23:32;9.73;;;1.90;;
2972;SDS011;1496;51.404;7.232;2023-05-19T15:26:02;3.30;;;1.70;;
2972;SDS011;1496;51.404;7.232;2023-05-19T15:28:30;5.73;;;1.80;;
2972;SDS011;1496;51.404;7.232;2023-05-19T15:30:57;6.20;;;2.40;;
2972;SDS011;1496;51.404;7.232;2023-05-19T15:33:24;4.20;;;2.10;;
2972;SDS011;1496;51.404;7.232;2023-05-19T15:35:51;6.80;;;2.37;;
2972;SDS011;1496;51.404;7.232;2023-05-19T15:38:18;2.20;;;1.87;;
2972;SDS011;1496;51.404;7.232;2023-05-19T15:40:46;5.37;;;2.30;;
2972;SDS011;1496;51.404;7.232;2023-05-19T15:43:15;3.93;;;2.10;;
2972;SDS011;1496;51.404;7.232;2023-05-19T15:45:43;4.47;;;2.10;;
2972;SDS011;1496;51.404;7.232;2023-05-19T15:48:09;7.80;;;1.83;;
2972;SDS011;1496;51.404;7.232;2023-05-19T15:50:37;3.63;;;2.00;;
2972;SDS011;1496;51.404;7.232;2023-05-19T15:53:14;3.00;;;1.70;;